createdAt,value
2019-06-10T00:00:50.891Z,84.30
2019-06-10T00:03:20.649Z,84.50
2019-06-10T00:08:17.369Z,84.70
2019-06-10T00:10:45.802Z,84.90
2019-06-10T00:13:14.196Z,84.90
2019-06-10T00:15:42.609Z,85.20
2019-06-10T00:18:34.082Z,85.40
2019-06-10T00:20:41.438Z,85.10
2019-06-10T00:23:12.237Z,85.40
2019-06-10T00:25:41.476Z,84.80
2019-06-10T00:28:11.923Z,85.20
2019-06-10T00:30:41.586Z,84.90
2019-06-10T00:33:12.613Z,85.10
2019-06-10T00:35:41.182Z,85.20
2019-06-10T00:40:41.484Z,84.80
2019-06-10T00:43:13.114Z,85.10
2019-06-10T00:45:41.197Z,85.10
2019-06-10T00:48:21.344Z,84.80
2019-06-10T00:50:41.375Z,84.80
2019-06-10T00:53:14.251Z,84.60
2019-06-10T00:55:41.479Z,84.80
2019-06-10T00:58:13.648Z,84.80
2019-06-10T01:00:41.528Z,84.70
2019-06-10T01:05:42.076Z,84.60
2019-06-10T01:08:15.028Z,84.70
2019-06-10T01:10:43.878Z,85.10
2019-06-10T01:13:13.212Z,85.20
2019-06-10T01:15:42.414Z,85.30
2019-06-10T01:18:28.724Z,85.50
2019-06-10T01:20:41.479Z,85.70
2019-06-10T01:25:42.427Z,85.50
2019-06-10T01:33:11.431Z,85.20
2019-06-10T01:35:41.492Z,85.20
2019-06-10T01:38:10.711Z,85.40
2019-06-10T01:40:41.869Z,85.70
2019-06-10T01:43:13.230Z,85.60
2019-06-10T01:45:41.838Z,85.30
2019-06-10T01:48:13.109Z,85.40
2019-06-10T01:50:41.081Z,85.80
2019-06-10T01:53:12.676Z,86.50
2019-06-10T01:58:10.684Z,88.10
2019-06-10T02:00:50.721Z,88.50
2019-06-10T02:03:23.741Z,89.20
2019-06-10T02:05:51.713Z,89.00
2019-06-10T02:08:22.162Z,88.90
2019-06-10T02:10:50.980Z,88.80
2019-06-10T02:13:32.424Z,88.70
2019-06-10T02:16:02.419Z,88.90
2019-06-10T02:18:31.981Z,88.50
2019-06-10T02:21:01.089Z,88.30
2019-06-10T02:23:31.582Z,88.50
2019-06-10T02:26:01.587Z,89.10
2019-06-10T02:28:31.671Z,89.60
2019-06-10T02:31:03.227Z,89.60
2019-06-10T02:33:36.142Z,89.10
2019-06-10T02:37:20.229Z,88.80
2019-06-10T02:42:22.332Z,88.40
2019-06-10T02:44:49.466Z,88.20
2019-06-10T02:47:22.623Z,88.20
2019-06-10T02:50:01.526Z,88.10
2019-06-10T02:52:22.632Z,88.10
2019-06-10T02:54:48.906Z,88.00
2019-06-10T02:57:21.234Z,88.10
2019-06-10T02:59:48.445Z,88.00
2019-06-10T03:02:18.284Z,88.00
2019-06-10T03:04:46.985Z,88.30
2019-06-10T03:07:15.859Z,88.00
2019-06-10T03:12:12.468Z,87.80
2019-06-10T03:14:42.261Z,88.00
2019-06-10T03:17:12.514Z,88.10
2019-06-10T03:19:47.874Z,88.20
2019-06-10T03:22:12.988Z,88.30
2019-06-10T03:24:42.147Z,88.10
2019-06-10T03:27:12.543Z,87.60
2019-06-10T03:29:42.127Z,88.20
2019-06-10T03:32:14.514Z,89.80
2019-06-10T03:34:46.085Z,90.80
2019-06-10T03:37:12.826Z,91.20
2019-06-10T03:39:42.683Z,91.10
2019-06-10T03:42:12.616Z,90.80
2019-06-10T03:44:43.077Z,90.90
2019-06-10T03:47:12.191Z,91.00
2019-06-10T03:49:49.878Z,91.30
2019-06-10T03:52:12.836Z,91.60
2019-06-10T03:54:43.291Z,92.30
2019-06-10T03:57:12.046Z,92.50
2019-06-10T03:59:42.200Z,92.90
2019-06-10T04:04:42.820Z,93.10
2019-06-10T04:07:14.119Z,93.00
2019-06-10T04:09:42.528Z,92.90
2019-06-10T04:12:12.563Z,92.60
2019-06-10T04:14:41.984Z,92.20
2019-06-10T04:17:12.938Z,91.90
2019-06-10T04:19:42.082Z,91.60
2019-06-10T04:22:12.928Z,91.10
2019-06-10T04:24:42.994Z,90.80
2019-06-10T04:27:12.300Z,91.50
2019-06-10T04:32:12.263Z,91.50
2019-06-10T04:34:42.721Z,91.00
2019-06-10T04:39:42.633Z,91.70
2019-06-10T04:42:12.871Z,91.80
2019-06-10T04:44:42.309Z,91.70
2019-06-10T04:47:12.061Z,91.30
2019-06-10T04:49:42.695Z,91.10
2019-06-10T04:54:42.138Z,90.40
2019-06-10T04:57:12.675Z,89.80
2019-06-10T04:59:42.892Z,90.40
2019-06-10T05:02:12.782Z,91.20
2019-06-10T05:04:42.649Z,91.90
2019-06-10T05:09:42.245Z,92.00
2019-06-10T05:12:12.100Z,92.10
2019-06-10T05:14:43.106Z,92.00
2019-06-10T05:17:12.709Z,91.90
2019-06-10T05:19:42.806Z,91.60
2019-06-10T05:22:12.397Z,91.30
2019-06-10T05:24:42.391Z,91.10
2019-06-10T05:27:12.541Z,90.80
2019-06-10T05:29:42.184Z,90.80
2019-06-10T05:32:12.641Z,90.50
2019-06-10T05:37:12.091Z,90.40
2019-06-10T05:39:42.424Z,90.20
2019-06-10T05:42:12.761Z,89.60
2019-06-10T05:44:42.948Z,88.90
2019-06-10T05:47:12.644Z,89.00
2019-06-10T05:49:43.062Z,89.10
2019-06-10T05:52:12.600Z,88.80
2019-06-10T05:54:43.097Z,88.40
2019-06-10T05:57:12.101Z,88.10
2019-06-10T05:59:43.142Z,87.60
2019-06-10T06:02:12.848Z,88.20
2019-06-10T06:04:42.843Z,88.40
2019-06-10T06:07:12.887Z,88.30
2019-06-10T06:09:42.685Z,88.70
2019-06-10T06:12:14.185Z,88.90
2019-06-10T06:14:42.565Z,88.70
2019-06-10T06:17:12.702Z,88.40
2019-06-10T06:19:43.335Z,88.10
2019-06-10T06:24:42.787Z,87.00
2019-06-10T06:27:13.122Z,86.60
2019-06-10T06:29:43.201Z,86.50
2019-06-10T06:34:43.111Z,86.60
2019-06-10T06:37:12.747Z,86.80
2019-06-10T06:39:42.921Z,86.60
2019-06-10T06:42:12.673Z,86.30
2019-06-10T06:44:43.313Z,86.50
2019-06-10T06:47:13.178Z,86.30
2019-06-10T06:49:42.570Z,86.20
2019-06-10T06:54:42.479Z,84.20
2019-06-10T06:57:13.112Z,82.80
2019-06-10T06:59:43.208Z,81.40
2019-06-10T07:02:12.316Z,79.80
2019-06-10T07:04:43.159Z,77.40
2019-06-10T07:09:43.574Z,76.90
2019-06-10T07:12:13.048Z,77.20
2019-06-10T07:14:45.111Z,78.10
2019-06-10T07:17:13.569Z,79.20
2019-06-10T07:19:45.652Z,80.30
2019-06-10T07:22:15.902Z,80.40
2019-06-10T07:24:47.356Z,80.40
2019-06-10T07:27:13.118Z,80.20
2019-06-10T07:29:47.021Z,80.30
2019-06-10T07:32:12.394Z,80.20
2019-06-10T07:34:44.135Z,79.90
2019-06-10T07:37:13.011Z,80.10
2019-06-10T07:39:44.005Z,79.20
2019-06-10T07:42:13.493Z,76.90
2019-06-10T07:44:43.590Z,76.10
2019-06-10T07:47:12.808Z,75.90
2019-06-10T07:49:43.944Z,76.10
2019-06-10T07:52:18.609Z,75.80
2019-06-10T07:57:12.958Z,77.20
2019-06-10T07:59:44.497Z,75.50
2019-06-10T08:02:12.386Z,73.70
2019-06-10T08:04:44.135Z,75.50
2019-06-10T08:07:12.495Z,74.90
2019-06-10T08:09:43.853Z,74.80
2019-06-10T08:12:12.740Z,74.90
2019-06-10T08:14:42.754Z,74.20
2019-06-10T08:17:12.920Z,73.40
2019-06-10T08:22:13.173Z,71.00
2019-06-10T08:24:43.708Z,70.50
2019-06-10T08:27:12.086Z,70.20
2019-06-10T08:29:41.621Z,71.30
2019-06-10T08:32:12.927Z,71.20
2019-06-10T08:34:44.617Z,70.00
2019-06-10T08:39:43.138Z,69.00
2019-06-10T08:42:12.411Z,68.00
2019-06-10T08:44:43.520Z,68.70
2019-06-10T08:47:12.402Z,68.20
2019-06-10T08:49:44.281Z,68.00
2019-06-10T08:52:12.859Z,67.50
2019-06-10T08:54:45.657Z,66.30
2019-06-10T08:57:12.722Z,65.80
2019-06-10T09:02:12.468Z,64.50
2019-06-10T09:04:44.863Z,64.20
2019-06-10T09:07:12.588Z,64.10
2019-06-10T09:17:12.506Z,66.20
2019-06-10T09:19:43.667Z,67.80
2019-06-10T09:22:12.592Z,68.70
2019-06-10T09:27:12.887Z,66.60
2019-06-10T09:32:12.472Z,63.90
2019-06-10T09:34:43.051Z,64.70
2019-06-10T09:37:12.444Z,64.20
2019-06-10T09:42:14.359Z,63.30
2019-06-10T09:44:45.114Z,63.00
2019-06-10T09:47:14.273Z,63.40
2019-06-10T09:52:13.460Z,63.50
2019-06-10T09:57:32.178Z,64.80
2019-06-10T10:00:03.407Z,64.00
2019-06-10T10:02:33.181Z,63.20
2019-06-10T10:05:01.137Z,63.40
2019-06-10T10:07:32.410Z,64.50
2019-06-10T10:12:32.701Z,64.80
2019-06-10T10:17:33.420Z,64.80
2019-06-10T10:20:03.221Z,63.20
2019-06-10T10:22:34.065Z,62.80
2019-06-10T10:25:02.970Z,63.90
2019-06-10T10:27:34.842Z,64.10
2019-06-10T10:30:05.098Z,63.40
2019-06-10T10:40:03.267Z,65.90
2019-06-10T10:42:42.688Z,66.70
2019-06-10T10:45:02.734Z,67.00
2019-06-10T10:50:02.862Z,66.70
2019-06-10T10:52:33.088Z,67.40
2019-06-10T10:55:06.653Z,67.80
2019-06-10T10:57:33.060Z,68.60
2019-06-10T11:00:03.165Z,67.80
2019-06-10T11:02:32.179Z,68.70
2019-06-10T11:05:01.100Z,69.60
2019-06-10T11:12:26.851Z,71.00
2019-06-10T11:15:00.455Z,70.60
2019-06-10T11:17:25.821Z,70.90
2019-06-10T11:19:55.960Z,71.10
2019-06-10T11:24:54.420Z,72.30
2019-06-10T11:27:22.817Z,72.60
2019-06-10T11:29:53.641Z,73.30
2019-06-10T11:32:21.406Z,73.70
2019-06-10T11:34:50.181Z,73.50
2019-06-10T11:39:46.673Z,73.10
2019-06-10T11:42:15.072Z,73.80
2019-06-10T11:47:13.128Z,74.50
2019-06-10T11:49:43.398Z,74.10
2019-06-10T11:52:12.585Z,74.50
2019-06-10T11:54:51.697Z,73.80
2019-06-10T11:57:12.520Z,74.40
2019-06-10T11:59:43.273Z,74.30
2019-06-10T12:02:13.305Z,73.70
2019-06-10T12:04:41.344Z,74.20
2019-06-10T12:07:09.758Z,74.10
2019-06-10T12:09:38.170Z,74.20
2019-06-10T12:12:06.591Z,74.30
2019-06-10T12:14:34.989Z,74.20
2019-06-10T12:17:35.209Z,74.00
2019-06-10T12:19:34.089Z,73.00
2019-06-10T12:22:07.103Z,73.70
2019-06-10T12:24:33.896Z,73.30
2019-06-10T12:27:05.058Z,72.90
2019-06-10T12:32:05.753Z,73.10
2019-06-10T12:34:33.268Z,73.00
2019-06-10T12:37:10.052Z,73.40
2019-06-10T12:39:31.192Z,73.70
2019-06-10T12:42:01.505Z,73.10
2019-06-10T12:44:29.838Z,73.00
2019-06-10T12:47:03.781Z,72.60
2019-06-10T12:49:29.458Z,73.70
2019-06-10T12:51:59.165Z,73.50
2019-06-10T12:54:27.757Z,73.00
2019-06-10T12:56:56.653Z,73.80
2019-06-10T12:59:27.089Z,73.10
2019-06-10T13:01:55.923Z,73.90
2019-06-10T13:04:24.922Z,74.00
2019-06-10T13:06:53.317Z,74.00
2019-06-10T13:09:23.585Z,74.20
2019-06-10T13:14:22.108Z,73.20
2019-06-10T13:16:52.689Z,73.80
2019-06-10T13:19:23.003Z,73.30
2019-06-10T13:21:52.798Z,72.80
2019-06-10T13:24:22.440Z,71.90
2019-06-10T13:34:17.125Z,71.50
2019-06-10T13:39:13.698Z,70.90
2019-06-10T13:41:43.770Z,71.40
2019-06-10T13:44:16.551Z,71.20
2019-06-10T13:52:05.132Z,71.60
2019-06-10T13:56:59.257Z,67.80
2019-06-10T14:01:55.774Z,68.10
2019-06-10T14:06:57.218Z,68.50
2019-06-10T14:11:52.979Z,67.30
2019-06-10T14:16:53.892Z,67.60
2019-06-10T14:19:23.309Z,68.60
2019-06-10T14:21:51.771Z,67.40
2019-06-10T14:24:22.547Z,68.30
2019-06-10T14:29:37.747Z,68.50
2019-06-10T14:32:07.351Z,66.80
2019-06-10T14:34:36.049Z,67.60
2019-06-10T14:37:05.766Z,68.40
2019-06-10T14:42:06.853Z,68.70
2019-06-10T14:44:35.184Z,68.20
2019-06-10T14:47:04.518Z,68.60
2019-06-10T14:49:33.204Z,69.80
2019-06-10T14:52:02.784Z,70.20
2019-06-10T14:57:02.656Z,70.40
2019-06-10T14:59:30.987Z,69.90
2019-06-10T15:01:59.389Z,70.30
2019-06-10T15:04:27.839Z,71.30
2019-06-10T15:09:24.380Z,70.60
2019-06-10T15:21:52.357Z,72.50
2019-06-10T15:24:23.525Z,72.80
2019-06-10T15:27:07.945Z,72.80
2019-06-10T15:32:05.975Z,72.70
2019-06-10T15:34:21.300Z,73.20
2019-06-10T15:39:19.628Z,73.50
2019-06-10T15:41:47.945Z,73.00
2019-06-10T15:44:48.554Z,73.00
2019-06-10T15:54:33.263Z,71.50
2019-06-10T15:57:03.148Z,72.60
2019-06-10T15:59:31.831Z,73.40
2019-06-10T16:02:02.407Z,74.60
2019-06-10T16:04:34.889Z,75.30
2019-06-10T16:07:02.538Z,76.20
2019-06-10T16:09:32.126Z,77.20
2019-06-10T16:12:02.988Z,78.00
2019-06-10T16:14:33.205Z,78.80
2019-06-10T16:17:03.131Z,80.30
2019-06-10T16:19:32.893Z,81.10
2019-06-10T16:22:03.194Z,81.80
2019-06-10T16:24:33.228Z,82.60
2019-06-10T16:27:03.370Z,83.20
2019-06-10T16:29:33.373Z,83.90
2019-06-10T16:32:02.600Z,84.50
2019-06-10T16:34:35.357Z,84.20
2019-06-10T16:37:04.322Z,85.10
2019-06-10T16:39:32.789Z,85.90
2019-06-10T16:47:03.033Z,87.50
2019-06-10T16:49:32.678Z,87.50
2019-06-10T16:52:02.953Z,87.50
2019-06-10T16:54:32.973Z,87.40
2019-06-10T16:57:03.744Z,87.30
2019-06-10T16:59:32.996Z,87.10
2019-06-10T17:02:02.263Z,86.90
2019-06-10T17:07:02.200Z,86.60
2019-06-10T17:09:32.890Z,86.80
2019-06-10T17:12:02.245Z,86.70
2019-06-10T17:17:03.651Z,85.80
2019-06-10T17:19:33.405Z,85.50
2019-06-10T17:24:31.397Z,86.20
2019-06-10T17:27:02.478Z,86.10
2019-06-10T17:29:30.639Z,86.20
2019-06-10T17:31:59.772Z,86.10
2019-06-10T17:34:29.679Z,86.00
2019-06-10T17:36:58.317Z,86.10
2019-06-10T17:39:28.324Z,86.00
2019-06-10T17:41:56.869Z,85.90
2019-06-10T17:44:28.745Z,85.90
2019-06-10T17:49:25.415Z,85.70
2019-06-10T17:51:53.660Z,85.60
2019-06-10T17:54:23.529Z,85.40
2019-06-10T17:56:52.200Z,85.40
2019-06-10T17:59:22.444Z,85.30
2019-06-10T18:01:52.394Z,85.10
2019-06-10T18:04:22.648Z,84.90
2019-06-10T18:06:52.933Z,85.10
2019-06-10T18:11:50.942Z,85.10
2019-06-10T18:21:43.647Z,85.40
2019-06-10T18:26:42.382Z,85.60
2019-06-10T18:29:12.877Z,85.40
2019-06-10T18:31:42.721Z,85.20
2019-06-10T18:34:13.188Z,85.30
2019-06-10T18:36:42.751Z,85.70
2019-06-10T18:39:12.340Z,85.90
2019-06-10T18:44:19.783Z,86.10
2019-06-10T18:46:43.047Z,86.10
2019-06-10T18:49:13.116Z,86.00
2019-06-10T18:51:43.222Z,85.80
2019-06-10T18:56:42.892Z,85.70
2019-06-10T18:59:19.719Z,85.40
2019-06-10T19:01:42.386Z,85.50
2019-06-10T19:06:42.944Z,86.00
2019-06-10T19:11:43.126Z,86.30
2019-06-10T19:14:12.802Z,86.60
2019-06-10T19:16:42.986Z,86.30
2019-06-10T19:21:43.600Z,86.50
2019-06-10T19:24:12.950Z,86.20
2019-06-10T19:26:44.861Z,86.20
2019-06-10T19:29:14.863Z,86.20
2019-06-10T19:31:45.604Z,86.70
2019-06-10T19:34:13.233Z,86.80
2019-06-10T19:36:41.967Z,86.80
2019-06-10T19:39:13.000Z,87.00
2019-06-10T19:41:45.864Z,87.00
2019-06-10T19:44:12.858Z,87.10
2019-06-10T19:49:13.152Z,86.70
2019-06-10T19:51:43.561Z,86.90
2019-06-10T19:54:12.787Z,87.10
2019-06-10T20:01:41.886Z,87.20
2019-06-10T20:04:10.477Z,87.10
2019-06-10T20:06:42.228Z,87.20
2019-06-10T20:11:38.403Z,87.10
2019-06-10T20:14:07.152Z,87.10
2019-06-10T20:16:35.686Z,87.60
2019-06-10T20:19:05.013Z,87.60
2019-06-10T20:21:33.437Z,87.60
2019-06-10T20:24:02.701Z,87.40
2019-06-10T20:26:32.897Z,87.10
2019-06-10T20:29:03.846Z,87.20
2019-06-10T20:31:32.559Z,87.20
2019-06-10T20:34:02.657Z,87.30
2019-06-10T20:36:33.389Z,87.40
2019-06-10T20:39:01.619Z,87.00
2019-06-10T20:41:30.020Z,87.30
2019-06-10T20:43:58.466Z,87.40
2019-06-10T20:46:26.877Z,87.40
2019-06-10T20:48:55.473Z,87.20
2019-06-10T20:51:27.100Z,86.80
2019-06-10T20:53:54.041Z,87.00
2019-06-10T20:56:23.298Z,86.90
2019-06-10T20:58:52.463Z,87.30
2019-06-10T21:01:25.239Z,87.20
2019-06-10T21:03:53.988Z,87.40
2019-06-10T21:08:53.365Z,87.10
2019-06-10T21:13:53.141Z,86.90
2019-06-10T21:16:22.950Z,87.00
2019-06-10T21:18:55.561Z,87.30
2019-06-10T21:21:22.693Z,87.30
2019-06-10T21:23:53.903Z,87.70
2019-06-10T21:26:23.529Z,87.40
2019-06-10T21:28:54.920Z,87.50
2019-06-10T21:31:21.763Z,87.60
2019-06-10T21:33:51.791Z,87.70
2019-06-10T21:36:22.838Z,87.30
2019-06-10T21:41:22.589Z,88.00
2019-06-10T21:43:57.571Z,87.70
2019-06-10T21:46:22.639Z,87.80
2019-06-10T21:48:50.660Z,87.50
2019-06-10T21:51:19.070Z,87.50
2019-06-10T21:53:48.544Z,87.50
2019-06-10T21:56:17.078Z,87.50
2019-06-10T21:58:46.800Z,87.50
2019-06-10T22:01:17.078Z,87.00
2019-06-10T22:03:51.930Z,87.10
2019-06-10T22:06:16.120Z,87.10
2019-06-10T22:08:45.712Z,87.20
2019-06-10T22:13:42.381Z,87.30
2019-06-10T22:16:10.858Z,87.40
2019-06-10T22:18:39.273Z,87.50
2019-06-10T22:21:07.680Z,87.50
2019-06-10T22:23:36.092Z,87.70
2019-06-10T22:26:04.500Z,87.50
2019-06-10T22:28:32.941Z,87.40
2019-06-10T22:31:17.202Z,87.50
2019-06-10T22:33:31.535Z,87.80
2019-06-10T22:36:02.191Z,88.00
2019-06-10T22:40:59.296Z,88.00
2019-06-10T22:43:27.824Z,88.10
2019-06-10T22:45:57.276Z,88.10
2019-06-10T22:48:25.934Z,88.10
2019-06-10T22:50:55.431Z,88.20
2019-06-10T22:55:53.479Z,88.30
2019-06-10T22:58:23.774Z,88.40
2019-06-10T23:03:41.198Z,88.30
2019-06-10T23:06:09.599Z,88.50
2019-06-10T23:08:38.029Z,88.50
2019-06-10T23:11:06.425Z,88.60
2019-06-10T23:13:34.840Z,88.30
2019-06-10T23:16:03.246Z,88.30
2019-06-10T23:18:32.072Z,88.20
2019-06-10T23:21:01.588Z,88.40
2019-06-10T23:23:32.604Z,88.40
2019-06-10T23:26:02.978Z,88.40
2019-06-10T23:28:32.690Z,88.40
2019-06-10T23:31:02.436Z,88.30
2019-06-10T23:33:32.397Z,88.60
2019-06-10T23:36:03.721Z,88.70
2019-06-10T23:41:03.565Z,88.80
2019-06-10T23:43:32.990Z,88.90
2019-06-10T23:46:04.108Z,89.00
2019-06-10T23:51:04.754Z,88.90
2019-06-10T23:53:32.820Z,88.80
2019-06-10T23:56:04.705Z,88.90
2019-06-10T23:58:32.902Z,89.00
